Terminal Aerodrome Forecast
Issued by NWS

Home | Current Version | Previous Version | Text Only | Print | Product List | Glossary On
Versions: 1 2 3 4 5 6 7 8 9 10 11 12 13 14 15 16 17 18 19 20 21 22 23 24
000
FTUS43 KBIS 221246 AAA
TAFMOT
TAF AMD
KMOT 221246Z 2213/2312 29015KT P6SM OVC015
     FM221500 29009KT P6SM BKN018 OVC025
     FM230100 26009KT P6SM OVC012
     FM230800 25007KT 5SM BR BKN008=

USA.gov is the U.S. government's official web portal to all federal, state and local government web resources and services.